sensor_id;sensor_type;location;lat;lon;timestamp;pressure;altitude;pressure_sealevel;temperature;humidity
16595;BME280;8410;52.532;13.336;2022-09-09T00:00:21;100579.84;;;19.06;94.04
16595;BME280;8410;52.532;13.336;2022-09-09T00:02:59;100579.22;;;18.97;94.44
16595;BME280;8410;52.532;13.336;2022-09-09T00:05:41;100575.78;;;18.94;94.14
16595;BME280;8410;52.532;13.336;2022-09-09T00:08:18;100574.34;;;18.83;94.42
16595;BME280;8410;52.532;13.336;2022-09-09T00:10:54;100578.44;;;18.93;94.61
16595;BME280;8410;52.532;13.336;2022-09-09T00:13:34;100580.34;;;18.86;93.73
16595;BME280;8410;52.532;13.336;2022-09-09T00:16:13;100576.09;;;18.82;94.07
16595;BME280;8410;52.532;13.336;2022-09-09T00:18:54;100578.81;;;18.78;95.16
16595;BME280;8410;52.532;13.336;2022-09-09T00:21:33;100580.41;;;18.85;93.50
16595;BME280;8410;52.532;13.336;2022-09-09T00:24:10;100571.63;;;18.87;93.29
16595;BME280;8410;52.532;13.336;2022-09-09T00:26:48;100573.38;;;18.87;93.79
16595;BME280;8410;52.532;13.336;2022-09-09T00:29:28;100571.06;;;18.75;93.52
16595;BME280;8410;52.532;13.336;2022-09-09T00:32:13;100570.22;;;18.72;95.30
16595;BME280;8410;52.532;13.336;2022-09-09T00:34:48;100569.25;;;18.78;93.95
16595;BME280;8410;52.532;13.336;2022-09-09T00:37:19;100564.94;;;18.76;93.80
16595;BME280;8410;52.532;13.336;2022-09-09T00:39:50;100567.28;;;18.86;94.08
16595;BME280;8410;52.532;13.336;2022-09-09T00:42:25;100562.16;;;18.83;92.92
16595;BME280;8410;52.532;13.336;2022-09-09T00:45:02;100562.25;;;18.80;93.97
16595;BME280;8410;52.532;13.336;2022-09-09T00:47:46;100568.63;;;18.65;95.03
16595;BME280;8410;52.532;13.336;2022-09-09T00:50:35;100566.69;;;18.73;94.07
16595;BME280;8410;52.532;13.336;2022-09-09T00:53:32;100565.06;;;18.69;93.55
16595;BME280;8410;52.532;13.336;2022-09-09T00:56:13;100568.50;;;18.71;93.49
16595;BME280;8410;52.532;13.336;2022-09-09T00:58:45;100569.88;;;18.49;94.97
16595;BME280;8410;52.532;13.336;2022-09-09T01:01:17;100570.44;;;18.63;94.54
16595;BME280;8410;52.532;13.336;2022-09-09T01:03:53;100564.00;;;18.80;93.28
16595;BME280;8410;52.532;13.336;2022-09-09T01:06:29;100570.00;;;18.82;91.95
16595;BME280;8410;52.532;13.336;2022-09-09T01:09:10;100570.38;;;18.66;92.64
16595;BME280;8410;52.532;13.336;2022-09-09T01:11:52;100577.09;;;18.38;93.79
16595;BME280;8410;52.532;13.336;2022-09-09T01:14:39;100581.97;;;18.53;94.66
16595;BME280;8410;52.532;13.336;2022-09-09T01:17:14;100580.88;;;18.63;92.80
16595;BME280;8410;52.532;13.336;2022-09-09T01:20:00;100575.78;;;18.57;93.64
16595;BME280;8410;52.532;13.336;2022-09-09T01:22:37;100572.66;;;18.43;95.01
16595;BME280;8410;52.532;13.336;2022-09-09T01:25:56;100573.16;;;18.57;93.84
16595;BME280;8410;52.532;13.336;2022-09-09T01:28:34;100570.63;;;18.54;94.36
16595;BME280;8410;52.532;13.336;2022-09-09T01:31:05;100576.72;;;18.55;94.34
16595;BME280;8410;52.532;13.336;2022-09-09T01:33:34;100574.34;;;18.44;93.78
16595;BME280;8410;52.532;13.336;2022-09-09T01:36:09;100572.66;;;18.43;94.83
16595;BME280;8410;52.532;13.336;2022-09-09T01:38:39;100566.34;;;18.51;94.46
16595;BME280;8410;52.532;13.336;2022-09-09T01:41:07;100567.00;;;18.61;93.63
16595;BME280;8410;52.532;13.336;2022-09-09T01:43:37;100567.94;;;18.59;93.73
16595;BME280;8410;52.532;13.336;2022-09-09T01:46:05;100566.84;;;18.30;95.35
16595;BME280;8410;52.532;13.336;2022-09-09T01:48:33;100577.84;;;18.43;94.98
16595;BME280;8410;52.532;13.336;2022-09-09T01:51:01;100576.94;;;18.45;94.47
16595;BME280;8410;52.532;13.336;2022-09-09T01:53:29;100572.41;;;18.52;93.46
16595;BME280;8410;52.532;13.336;2022-09-09T01:56:10;100574.34;;;18.44;93.28
16595;BME280;8410;52.532;13.336;2022-09-09T01:59:02;100570.19;;;18.37;93.07
16595;BME280;8410;52.532;13.336;2022-09-09T02:01:48;100571.06;;;18.36;93.77
16595;BME280;8410;52.532;13.336;2022-09-09T02:04:36;100568.38;;;18.39;94.09
16595;BME280;8410;52.532;13.336;2022-09-09T02:07:22;100562.56;;;18.27;92.65
16595;BME280;8410;52.532;13.336;2022-09-09T02:10:01;100570.94;;;18.42;93.90
16595;BME280;8410;52.532;13.336;2022-09-09T02:12:33;100579.00;;;18.31;93.07
16595;BME280;8410;52.532;13.336;2022-09-09T02:15:08;100579.63;;;18.41;93.21
16595;BME280;8410;52.532;13.336;2022-09-09T02:17:40;100582.56;;;18.25;92.67
16595;BME280;8410;52.532;13.336;2022-09-09T02:20:13;100594.03;;;18.18;95.27
16595;BME280;8410;52.532;13.336;2022-09-09T02:22:45;100582.88;;;18.12;95.11
16595;BME280;8410;52.532;13.336;2022-09-09T02:25:21;100588.53;;;18.30;94.02
16595;BME280;8410;52.532;13.336;2022-09-09T02:27:51;100588.94;;;18.12;94.72
16595;BME280;8410;52.532;13.336;2022-09-09T02:30:21;100587.75;;;18.28;93.66
16595;BME280;8410;52.532;13.336;2022-09-09T02:32:54;100587.06;;;18.20;93.32
16595;BME280;8410;52.532;13.336;2022-09-09T02:35:25;100586.75;;;18.33;93.19
16595;BME280;8410;52.532;13.336;2022-09-09T02:37:59;100579.22;;;18.20;92.82
16595;BME280;8410;52.532;13.336;2022-09-09T02:40:29;100574.91;;;18.19;93.55
16595;BME280;8410;52.532;13.336;2022-09-09T02:42:57;100573.81;;;18.28;92.53
16595;BME280;8410;52.532;13.336;2022-09-09T02:45:37;100582.47;;;18.32;93.18
16595;BME280;8410;52.532;13.336;2022-09-09T02:48:20;100586.16;;;18.20;92.98
16595;BME280;8410;52.532;13.336;2022-09-09T02:50:57;100584.72;;;18.06;93.26
16595;BME280;8410;52.532;13.336;2022-09-09T02:53:37;100583.72;;;18.12;92.75
16595;BME280;8410;52.532;13.336;2022-09-09T02:56:13;100582.16;;;18.05;93.31
16595;BME280;8410;52.532;13.336;2022-09-09T02:58:43;100584.84;;;18.02;93.53
16595;BME280;8410;52.532;13.336;2022-09-09T03:01:12;100581.69;;;17.84;94.24
16595;BME280;8410;52.532;13.336;2022-09-09T03:03:41;100583.63;;;17.73;93.96
16595;BME280;8410;52.532;13.336;2022-09-09T03:06:10;100571.38;;;17.80;94.22
16595;BME280;8410;52.532;13.336;2022-09-09T03:08:39;100582.63;;;17.82;94.35
16595;BME280;8410;52.532;13.336;2022-09-09T03:11:15;100597.25;;;17.89;94.14
16595;BME280;8410;52.532;13.336;2022-09-09T03:13:43;100590.72;;;17.65;95.50
16595;BME280;8410;52.532;13.336;2022-09-09T03:16:12;100597.09;;;17.95;93.62
16595;BME280;8410;52.532;13.336;2022-09-09T03:18:41;100599.75;;;17.94;93.19
16595;BME280;8410;52.532;13.336;2022-09-09T03:21:12;100600.69;;;17.90;93.99
16595;BME280;8410;52.532;13.336;2022-09-09T03:23:41;100603.38;;;17.87;93.51
16595;BME280;8410;52.532;13.336;2022-09-09T03:26:09;100612.16;;;17.81;93.77
16595;BME280;8410;52.532;13.336;2022-09-09T03:28:37;100610.34;;;17.84;93.93
16595;BME280;8410;52.532;13.336;2022-09-09T03:31:06;100607.91;;;17.74;93.81
16595;BME280;8410;52.532;13.336;2022-09-09T03:33:38;100609.59;;;17.76;94.02
16595;BME280;8410;52.532;13.336;2022-09-09T03:36:08;100606.53;;;18.01;93.28
16595;BME280;8410;52.532;13.336;2022-09-09T03:38:37;100610.75;;;18.06;92.67
16595;BME280;8410;52.532;13.336;2022-09-09T03:41:05;100608.31;;;17.99;92.46
16595;BME280;8410;52.532;13.336;2022-09-09T03:43:34;100609.25;;;17.96;91.97
16595;BME280;8410;52.532;13.336;2022-09-09T03:46:04;100607.66;;;17.89;92.33
16595;BME280;8410;52.532;13.336;2022-09-09T03:48:32;100612.88;;;17.89;92.52
16595;BME280;8410;52.532;13.336;2022-09-09T03:51:01;100607.91;;;17.75;93.85
16595;BME280;8410;52.532;13.336;2022-09-09T03:53:29;100614.63;;;17.87;93.11
16595;BME280;8410;52.532;13.336;2022-09-09T03:55:58;100612.88;;;17.89;92.71
16595;BME280;8410;52.532;13.336;2022-09-09T03:58:28;100620.63;;;17.91;93.19
16595;BME280;8410;52.532;13.336;2022-09-09T04:00:58;100607.59;;;17.91;93.49
16595;BME280;8410;52.532;13.336;2022-09-09T04:03:27;100610.44;;;17.78;93.77
16595;BME280;8410;52.532;13.336;2022-09-09T04:05:59;100606.16;;;17.76;91.72
16595;BME280;8410;52.532;13.336;2022-09-09T04:08:30;100610.84;;;17.57;93.99
16595;BME280;8410;52.532;13.336;2022-09-09T04:11:00;100606.09;;;17.80;92.10
16595;BME280;8410;52.532;13.336;2022-09-09T04:13:33;100594.97;;;17.69;94.18
16595;BME280;8410;52.532;13.336;2022-09-09T04:16:03;100600.16;;;17.72;92.98
16595;BME280;8410;52.532;13.336;2022-09-09T04:18:31;100598.22;;;17.83;93.32
16595;BME280;8410;52.532;13.336;2022-09-09T04:20:59;100599.94;;;17.84;92.28
16595;BME280;8410;52.532;13.336;2022-09-09T04:23:29;100607.13;;;17.70;91.97
16595;BME280;8410;52.532;13.336;2022-09-09T04:25:59;100608.31;;;17.54;92.52
16595;BME280;8410;52.532;13.336;2022-09-09T04:28:30;100606.22;;;17.73;93.16
16595;BME280;8410;52.532;13.336;2022-09-09T04:31:05;100612.00;;;17.89;91.90
16595;BME280;8410;52.532;13.336;2022-09-09T04:33:33;100613.66;;;17.93;91.44
16595;BME280;8410;52.532;13.336;2022-09-09T04:36:06;100612.88;;;17.88;90.94
16595;BME280;8410;52.532;13.336;2022-09-09T04:38:36;100621.38;;;17.97;91.50
16595;BME280;8410;52.532;13.336;2022-09-09T04:41:04;100622.63;;;17.76;92.11
16595;BME280;8410;52.532;13.336;2022-09-09T04:43:33;100620.91;;;17.75;92.33
16595;BME280;8410;52.532;13.336;2022-09-09T04:46:01;100622.59;;;17.79;91.05
16595;BME280;8410;52.532;13.336;2022-09-09T04:48:29;100623.19;;;17.94;91.51
16595;BME280;8410;52.532;13.336;2022-09-09T04:51:00;100619.63;;;17.99;90.97
16595;BME280;8410;52.532;13.336;2022-09-09T04:53:28;100630.41;;;17.79;92.16
16595;BME280;8410;52.532;13.336;2022-09-09T04:56:04;100635.59;;;17.81;91.18
16595;BME280;8410;52.532;13.336;2022-09-09T04:58:33;100635.38;;;17.92;91.57
16595;BME280;8410;52.532;13.336;2022-09-09T05:01:06;100641.38;;;17.97;90.98
16595;BME280;8410;52.532;13.336;2022-09-09T05:03:34;100636.03;;;18.03;91.24
16595;BME280;8410;52.532;13.336;2022-09-09T05:06:05;100637.66;;;18.08;89.98
16595;BME280;8410;52.532;13.336;2022-09-09T05:08:35;100642.91;;;18.07;89.88
16595;BME280;8410;52.532;13.336;2022-09-09T05:11:14;100644.47;;;18.14;91.60
16595;BME280;8410;52.532;13.336;2022-09-09T05:13:44;100647.91;;;18.16;90.02
16595;BME280;8410;52.532;13.336;2022-09-09T05:16:13;100644.09;;;18.33;90.82
16595;BME280;8410;52.532;13.336;2022-09-09T05:18:41;100641.47;;;18.34;90.96
16595;BME280;8410;52.532;13.336;2022-09-09T05:21:10;100639.44;;;18.47;88.62
16595;BME280;8410;52.532;13.336;2022-09-09T05:23:38;100638.75;;;18.39;89.37
16595;BME280;8410;52.532;13.336;2022-09-09T05:26:12;100630.75;;;18.46;87.66
16595;BME280;8410;52.532;13.336;2022-09-09T05:28:44;100634.44;;;18.38;89.76
16595;BME280;8410;52.532;13.336;2022-09-09T05:31:14;100630.69;;;18.49;88.84
16595;BME280;8410;52.532;13.336;2022-09-09T05:33:45;100635.47;;;18.69;88.85
16595;BME280;8410;52.532;13.336;2022-09-09T05:36:18;100638.72;;;18.42;88.61
16595;BME280;8410;52.532;13.336;2022-09-09T05:38:47;100639.88;;;18.67;87.54
16595;BME280;8410;52.532;13.336;2022-09-09T05:41:17;100641.69;;;18.64;89.07
16595;BME280;8410;52.532;13.336;2022-09-09T05:43:46;100639.88;;;18.67;87.87
16595;BME280;8410;52.532;13.336;2022-09-09T05:46:17;100639.78;;;18.70;89.84
16595;BME280;8410;52.532;13.336;2022-09-09T05:48:47;100629.34;;;18.70;89.06
16595;BME280;8410;52.532;13.336;2022-09-09T05:51:20;100632.13;;;18.64;89.28
16595;BME280;8410;52.532;13.336;2022-09-09T05:53:49;100633.69;;;18.71;88.83
16595;BME280;8410;52.532;13.336;2022-09-09T05:56:21;100636.03;;;18.84;88.57
16595;BME280;8410;52.532;13.336;2022-09-09T05:58:52;100639.56;;;18.83;88.69
16595;BME280;8410;52.532;13.336;2022-09-09T06:01:24;100646.41;;;18.87;87.93
16595;BME280;8410;52.532;13.336;2022-09-09T06:03:53;100653.63;;;18.76;88.50
16595;BME280;8410;52.532;13.336;2022-09-09T06:06:23;100647.56;;;18.75;87.52
16595;BME280;8410;52.532;13.336;2022-09-09T06:08:54;100651.75;;;18.81;88.13
16595;BME280;8410;52.532;13.336;2022-09-09T06:11:26;100654.69;;;19.04;87.37
16595;BME280;8410;52.532;13.336;2022-09-09T06:13:58;100665.72;;;18.80;87.60
16595;BME280;8410;52.532;13.336;2022-09-09T06:16:28;100665.47;;;18.89;88.37
16595;BME280;8410;52.532;13.336;2022-09-09T06:18:57;100668.03;;;18.92;87.23
16595;BME280;8410;52.532;13.336;2022-09-09T06:21:27;100669.09;;;19.19;86.69
16595;BME280;8410;52.532;13.336;2022-09-09T06:23:56;100666.41;;;19.24;86.75
16595;BME280;8410;52.532;13.336;2022-09-09T06:26:31;100658.09;;;19.44;86.29
16595;BME280;8410;52.532;13.336;2022-09-09T06:29:01;100658.09;;;19.42;85.79
16595;BME280;8410;52.532;13.336;2022-09-09T06:31:32;100659.69;;;19.49;86.42
16595;BME280;8410;52.532;13.336;2022-09-09T06:34:04;100658.19;;;19.39;85.76
16595;BME280;8410;52.532;13.336;2022-09-09T06:36:35;100660.16;;;19.64;84.83
16595;BME280;8410;52.532;13.336;2022-09-09T06:39:04;100667.97;;;19.31;85.23
16595;BME280;8410;52.532;13.336;2022-09-09T06:41:39;100668.81;;;19.31;86.46
16595;BME280;8410;52.532;13.336;2022-09-09T06:44:07;100676.47;;;19.39;86.12
16595;BME280;8410;52.532;13.336;2022-09-09T06:46:37;100683.91;;;19.18;88.23
16595;BME280;8410;52.532;13.336;2022-09-09T06:49:08;100681.97;;;19.27;87.74
16595;BME280;8410;52.532;13.336;2022-09-09T06:51:37;100676.13;;;19.17;86.49
16595;BME280;8410;52.532;13.336;2022-09-09T06:54:10;100680.34;;;19.23;85.72
16595;BME280;8410;52.532;13.336;2022-09-09T06:56:41;100681.94;;;18.92;85.95
16595;BME280;8410;52.532;13.336;2022-09-09T06:59:11;100677.75;;;19.21;86.41
16595;BME280;8410;52.532;13.336;2022-09-09T07:01:41;100676.16;;;19.51;85.81
16595;BME280;8410;52.532;13.336;2022-09-09T07:04:10;100668.47;;;19.45;84.43
16595;BME280;8410;52.532;13.336;2022-09-09T07:06:42;100658.78;;;19.83;83.40
16595;BME280;8410;52.532;13.336;2022-09-09T07:09:13;100662.88;;;19.93;83.61
16595;BME280;8410;52.532;13.336;2022-09-09T07:11:45;100666.41;;;20.23;82.14
16595;BME280;8410;52.532;13.336;2022-09-09T07:14:14;100667.34;;;20.21;82.57
16595;BME280;8410;52.532;13.336;2022-09-09T07:16:44;100674.00;;;20.31;81.35
16595;BME280;8410;52.532;13.336;2022-09-09T07:19:13;100677.19;;;20.11;82.37
16595;BME280;8410;52.532;13.336;2022-09-09T07:21:42;100669.06;;;20.22;82.07
16595;BME280;8410;52.532;13.336;2022-09-09T07:24:11;100658.16;;;20.06;81.25
16595;BME280;8410;52.532;13.336;2022-09-09T07:26:40;100675.34;;;20.44;80.39
16595;BME280;8410;52.532;13.336;2022-09-09T07:29:09;100668.78;;;20.31;80.44
16595;BME280;8410;52.532;13.336;2022-09-09T07:31:46;100679.38;;;19.95;83.00
16595;BME280;8410;52.532;13.336;2022-09-09T07:34:15;100677.44;;;20.02;81.62
16595;BME280;8410;52.532;13.336;2022-09-09T07:36:42;100676.16;;;20.48;80.00
16595;BME280;8410;52.532;13.336;2022-09-09T07:39:13;100674.63;;;20.39;80.92
16595;BME280;8410;52.532;13.336;2022-09-09T07:41:43;100665.91;;;20.70;80.45
16595;BME280;8410;52.532;13.336;2022-09-09T07:44:15;100671.06;;;21.01;79.03
16595;BME280;8410;52.532;13.336;2022-09-09T07:46:44;100680.16;;;21.16;76.95
16595;BME280;8410;52.532;13.336;2022-09-09T07:49:13;100677.28;;;20.69;77.58
16595;BME280;8410;52.532;13.336;2022-09-09T07:51:44;100683.38;;;21.24;78.32
16595;BME280;8410;52.532;13.336;2022-09-09T07:54:16;100689.31;;;21.29;77.79
16595;BME280;8410;52.532;13.336;2022-09-09T07:56:47;100683.22;;;21.02;78.07
16595;BME280;8410;52.532;13.336;2022-09-09T07:59:17;100679.28;;;21.44;77.16
16595;BME280;8410;52.532;13.336;2022-09-09T08:01:48;100683.09;;;21.33;76.09
16595;BME280;8410;52.532;13.336;2022-09-09T08:04:21;100674.47;;;21.56;75.24
16595;BME280;8410;52.532;13.336;2022-09-09T08:06:52;100681.59;;;21.78;75.20
16595;BME280;8410;52.532;13.336;2022-09-09T08:09:21;100684.66;;;21.66;75.42
16595;BME280;8410;52.532;13.336;2022-09-09T08:11:52;100688.50;;;21.55;74.99
16595;BME280;8410;52.532;13.336;2022-09-09T08:14:21;100689.84;;;21.67;76.37
16595;BME280;8410;52.532;13.336;2022-09-09T08:16:50;100701.34;;;21.63;75.37
16595;BME280;8410;52.532;13.336;2022-09-09T08:19:20;100690.53;;;21.72;76.05
16595;BME280;8410;52.532;13.336;2022-09-09T08:21:49;100693.69;;;21.82;76.00
16595;BME280;8410;52.532;13.336;2022-09-09T08:24:17;100698.03;;;21.58;76.39
16595;BME280;8410;52.532;13.336;2022-09-09T08:26:48;100694.81;;;21.50;76.14
16595;BME280;8410;52.532;13.336;2022-09-09T08:29:16;100692.34;;;21.45;75.14
16595;BME280;8410;52.532;13.336;2022-09-09T08:31:49;100699.66;;;21.34;75.56
16595;BME280;8410;52.532;13.336;2022-09-09T08:34:18;100691.09;;;21.29;78.36
16595;BME280;8410;52.532;13.336;2022-09-09T08:36:48;100693.75;;;21.55;75.91
16595;BME280;8410;52.532;13.336;2022-09-09T08:39:19;100691.59;;;21.92;75.79
16595;BME280;8410;52.532;13.336;2022-09-09T08:45:24;100704.09;;;21.84;75.62
16595;BME280;8410;52.532;13.336;2022-09-09T08:48:10;100694.59;;;22.06;74.00
16595;BME280;8410;52.532;13.336;2022-09-09T08:50:45;100702.31;;;21.61;76.38
16595;BME280;8410;52.532;13.336;2022-09-09T08:53:19;100691.84;;;22.09;74.08
16595;BME280;8410;52.532;13.336;2022-09-09T08:55:51;100690.66;;;22.19;73.63
16595;BME280;8410;52.532;13.336;2022-09-09T08:58:26;100694.59;;;22.06;73.04
16595;BME280;8410;52.532;13.336;2022-09-09T09:01:11;100692.31;;;22.22;73.88
16595;BME280;8410;52.532;13.336;2022-09-09T09:03:52;100695.34;;;22.35;73.30
16595;BME280;8410;52.532;13.336;2022-09-09T09:06:37;100698.97;;;22.54;73.66
16595;BME280;8410;52.532;13.336;2022-09-09T09:09:18;100699.81;;;22.31;74.01
16595;BME280;8410;52.532;13.336;2022-09-09T09:11:53;100691.59;;;22.64;73.21
16595;BME280;8410;52.532;13.336;2022-09-09T09:14:23;100691.75;;;22.83;71.74
16595;BME280;8410;52.532;13.336;2022-09-09T09:16:57;100697.03;;;22.59;73.02
16595;BME280;8410;52.532;13.336;2022-09-09T09:19:29;100694.31;;;22.84;72.71
16595;BME280;8410;52.532;13.336;2022-09-09T09:22:05;100695.97;;;22.63;72.71
16595;BME280;8410;52.532;13.336;2022-09-09T09:24:45;100691.91;;;23.02;72.06
16595;BME280;8410;52.532;13.336;2022-09-09T09:27:30;100700.66;;;22.79;72.53
16595;BME280;8410;52.532;13.336;2022-09-09T09:30:05;100698.03;;;22.79;72.11
16595;BME280;8410;52.532;13.336;2022-09-09T09:32:58;100698.84;;;23.25;70.93
16595;BME280;8410;52.532;13.336;2022-09-09T09:35:29;100688.63;;;23.60;68.20
16595;BME280;8410;52.532;13.336;2022-09-09T09:37:58;100688.19;;;23.28;69.31
16595;BME280;8410;52.532;13.336;2022-09-09T09:40:52;100689.41;;;23.41;69.92
16595;BME280;8410;52.532;13.336;2022-09-09T09:43:26;100683.91;;;23.47;68.36
16595;BME280;8410;52.532;13.336;2022-09-09T09:45:55;100698.00;;;23.02;70.88
16595;BME280;8410;52.532;13.336;2022-09-09T09:48:44;100689.94;;;23.29;69.33
16595;BME280;8410;52.532;13.336;2022-09-09T09:51:18;100684.81;;;23.26;70.06
16595;BME280;8410;52.532;13.336;2022-09-09T09:53:47;100691.63;;;22.86;69.54
16595;BME280;8410;52.532;13.336;2022-09-09T09:56:16;100694.78;;;23.18;69.23
16595;BME280;8410;52.532;13.336;2022-09-09T09:58:51;100683.38;;;22.97;69.26
16595;BME280;8410;52.532;13.336;2022-09-09T10:01:22;100696.19;;;23.04;70.14
16595;BME280;8410;52.532;13.336;2022-09-09T10:03:54;100690.94;;;23.04;70.40
16595;BME280;8410;52.532;13.336;2022-09-09T10:06:34;100685.16;;;23.17;70.26
16595;BME280;8410;52.532;13.336;2022-09-09T10:09:04;100687.44;;;23.46;68.71
16595;BME280;8410;52.532;13.336;2022-09-09T10:11:58;100696.34;;;22.54;71.25
16595;BME280;8410;52.532;13.336;2022-09-09T10:14:41;100685.44;;;23.10;69.92
16595;BME280;8410;52.532;13.336;2022-09-09T10:17:26;100690.66;;;23.32;69.09
16595;BME280;8410;52.532;13.336;2022-09-09T10:20:17;100684.69;;;23.29;69.60
16595;BME280;8410;52.532;13.336;2022-09-09T10:22:53;100686.78;;;23.41;68.82
16595;BME280;8410;52.532;13.336;2022-09-09T10:25:48;100687.44;;;23.46;68.39
16595;BME280;8410;52.532;13.336;2022-09-09T10:28:58;100690.34;;;23.40;67.63
16595;BME280;8410;52.532;13.336;2022-09-09T10:31:43;100689.31;;;23.44;67.95
16595;BME280;8410;52.532;13.336;2022-09-09T10:34:30;100692.97;;;23.40;68.49
16595;BME280;8410;52.532;13.336;2022-09-09T10:37:08;100691.50;;;23.33;68.96
16595;BME280;8410;52.532;13.336;2022-09-09T10:39:42;100702.53;;;23.21;70.26
16595;BME280;8410;52.532;13.336;2022-09-09T10:42:14;100695.94;;;23.53;68.57
16595;BME280;8410;52.532;13.336;2022-09-09T10:45:08;100700.34;;;23.73;68.26
16595;BME280;8410;52.532;13.336;2022-09-09T10:48:03;100701.78;;;23.60;68.00
16595;BME280;8410;52.532;13.336;2022-09-09T10:50:54;100692.56;;;23.49;68.02
16595;BME280;8410;52.532;13.336;2022-09-09T10:53:37;100693.63;;;23.45;68.04
16595;BME280;8410;52.532;13.336;2022-09-09T10:56:16;100695.09;;;23.52;68.08
16595;BME280;8410;52.532;13.336;2022-09-09T10:58:50;100697.00;;;23.27;68.53
16595;BME280;8410;52.532;13.336;2022-09-09T11:01:24;100690.19;;;23.43;67.22
16595;BME280;8410;52.532;13.336;2022-09-09T11:04:00;100692.97;;;23.40;67.14
16595;BME280;8410;52.532;13.336;2022-09-09T11:06:38;100694.03;;;23.56;66.44
16595;BME280;8410;52.532;13.336;2022-09-09T11:09:16;100691.78;;;23.68;66.99
16595;BME280;8410;52.532;13.336;2022-09-09T11:11:52;100694.97;;;23.76;66.32
16595;BME280;8410;52.532;13.336;2022-09-09T11:14:29;100686.56;;;23.88;65.92
16595;BME280;8410;52.532;13.336;2022-09-09T11:17:10;100693.97;;;23.99;65.16
16595;BME280;8410;52.532;13.336;2022-09-09T11:19:41;100691.00;;;24.07;65.46
16595;BME280;8410;52.532;13.336;2022-09-09T11:22:23;100694.72;;;23.82;65.99
16595;BME280;8410;52.532;13.336;2022-09-09T11:24:58;100688.63;;;23.60;66.79
16595;BME280;8410;52.532;13.336;2022-09-09T11:27:39;100684.94;;;23.43;68.21
16595;BME280;8410;52.532;13.336;2022-09-09T11:30:20;100688.16;;;23.72;67.29
16595;BME280;8410;52.532;13.336;2022-09-09T11:33:41;100691.03;;;23.86;67.05
16595;BME280;8410;52.532;13.336;2022-09-09T11:36:54;100691.63;;;23.93;65.75
16595;BME280;8410;52.532;13.336;2022-09-09T11:39:59;100681.50;;;24.23;65.58
16595;BME280;8410;52.532;13.336;2022-09-09T11:42:32;100683.28;;;24.23;65.48
16595;BME280;8410;52.532;13.336;2022-09-09T11:45:10;100688.25;;;23.89;65.57
16595;BME280;8410;52.532;13.336;2022-09-09T11:47:39;100689.03;;;24.12;64.82
16595;BME280;8410;52.532;13.336;2022-09-09T11:50:10;100671.34;;;24.72;62.38
16595;BME280;8410;52.532;13.336;2022-09-09T11:53:18;100672.66;;;24.45;63.01
16595;BME280;8410;52.532;13.336;2022-09-09T11:56:11;100665.56;;;24.47;63.29
16595;BME280;8410;52.532;13.336;2022-09-09T11:58:54;100667.06;;;24.13;63.18
16595;BME280;8410;52.532;13.336;2022-09-09T12:01:38;100658.81;;;24.20;63.06
16595;BME280;8410;52.532;13.336;2022-09-09T12:04:37;100649.16;;;24.40;61.76
16595;BME280;8410;52.532;13.336;2022-09-09T12:07:31;100653.31;;;24.46;62.42
16595;BME280;8410;52.532;13.336;2022-09-09T12:10:05;100651.22;;;24.33;61.73
16595;BME280;8410;52.532;13.336;2022-09-09T12:12:47;100647.75;;;24.33;62.82
16595;BME280;8410;52.532;13.336;2022-09-09T12:15:26;100640.25;;;24.42;62.75
16595;BME280;8410;52.532;13.336;2022-09-09T12:17:58;100643.63;;;24.65;62.75
16595;BME280;8410;52.532;13.336;2022-09-09T12:20:36;100636.41;;;25.24;60.22
16595;BME280;8410;52.532;13.336;2022-09-09T12:23:24;100632.91;;;24.87;61.30
16595;BME280;8410;52.532;13.336;2022-09-09T12:26:32;100635.53;;;24.51;62.95
16595;BME280;8410;52.532;13.336;2022-09-09T12:29:14;100636.09;;;24.57;61.35
16595;BME280;8410;52.532;13.336;2022-09-09T12:31:53;100633.22;;;24.43;61.72
16595;BME280;8410;52.532;13.336;2022-09-09T12:34:35;100633.25;;;24.62;60.93
16595;BME280;8410;52.532;13.336;2022-09-09T12:37:15;100633.84;;;23.91;62.22
16595;BME280;8410;52.532;13.336;2022-09-09T12:39:51;100630.97;;;24.35;61.54
16595;BME280;8410;52.532;13.336;2022-09-09T12:42:23;100629.69;;;24.06;62.08
16595;BME280;8410;52.532;13.336;2022-09-09T12:44:56;100624.75;;;23.98;62.77
16595;BME280;8410;52.532;13.336;2022-09-09T12:47:38;100621.66;;;24.28;62.12
16595;BME280;8410;52.532;13.336;2022-09-09T12:50:18;100617.19;;;24.49;61.51
16595;BME280;8410;52.532;13.336;2022-09-09T12:52:49;100618.03;;;24.50;60.86
16595;BME280;8410;52.532;13.336;2022-09-09T12:55:21;100616.59;;;24.61;60.24
16595;BME280;8410;52.532;13.336;2022-09-09T12:57:52;100622.50;;;24.48;60.64
16595;BME280;8410;52.532;13.336;2022-09-09T13:00:24;100627.25;;;24.39;61.38
16595;BME280;8410;52.532;13.336;2022-09-09T13:02:56;100637.44;;;23.89;61.43
16595;BME280;8410;52.532;13.336;2022-09-09T13:05:28;100629.88;;;24.02;60.22
16595;BME280;8410;52.532;13.336;2022-09-09T13:08:03;100634.16;;;24.42;58.87
16595;BME280;8410;52.532;13.336;2022-09-09T13:10:36;100639.56;;;24.58;58.37
16595;BME280;8410;52.532;13.336;2022-09-09T13:13:23;100644.38;;;24.67;58.06
16595;BME280;8410;52.532;13.336;2022-09-09T13:15:54;100636.41;;;24.51;58.88
16595;BME280;8410;52.532;13.336;2022-09-09T13:18:29;100634.34;;;24.18;60.55
16595;BME280;8410;52.532;13.336;2022-09-09T13:20:58;100644.34;;;24.50;59.76
16595;BME280;8410;52.532;13.336;2022-09-09T13:23:30;100627.38;;;24.74;58.63
16595;BME280;8410;52.532;13.336;2022-09-09T13:26:02;100636.50;;;24.29;59.73
16595;BME280;8410;52.532;13.336;2022-09-09T13:28:31;100630.25;;;24.51;59.94
16595;BME280;8410;52.532;13.336;2022-09-09T13:31:02;100618.91;;;24.30;61.11
16595;BME280;8410;52.532;13.336;2022-09-09T13:33:35;100613.09;;;24.04;61.66